createdAt,value
2019-06-07T00:01:52.795Z,6.97
2019-06-07T00:04:22.728Z,6.42
2019-06-07T00:06:52.654Z,6.15
2019-06-07T00:09:22.945Z,6.35
2019-06-07T00:11:52.897Z,6.42
2019-06-07T00:14:22.828Z,6.17
2019-06-07T00:16:52.765Z,6.33
2019-06-07T00:19:22.650Z,6.47
2019-06-07T00:22:15.524Z,6.40
2019-06-07T00:24:24.064Z,6.25
2019-06-07T00:26:58.836Z,6.25
2019-06-07T00:29:25.447Z,6.28
2019-06-07T00:31:55.262Z,6.37
2019-06-07T00:34:25.192Z,6.47
2019-06-07T00:36:56.180Z,6.35
2019-06-07T00:39:26.379Z,6.37
2019-06-07T00:41:56.330Z,6.13
2019-06-07T00:44:26.105Z,6.53
2019-06-07T00:46:57.042Z,6.17
2019-06-07T00:49:40.528Z,5.95
2019-06-07T00:51:58.311Z,6.03
2019-06-07T00:54:28.150Z,6.40
2019-06-07T00:56:57.998Z,6.12
2019-06-07T00:59:29.595Z,6.33
2019-06-07T01:01:59.398Z,6.23
2019-06-07T01:04:29.296Z,6.08
2019-06-07T01:06:59.146Z,6.00
2019-06-07T01:09:29.116Z,6.35
2019-06-07T01:11:58.806Z,5.97
2019-06-07T01:14:29.044Z,6.03
2019-06-07T01:17:22.120Z,6.17
2019-06-07T01:19:30.487Z,5.87
2019-06-07T01:22:00.313Z,6.42
2019-06-07T01:24:30.250Z,6.00
2019-06-07T01:27:00.136Z,5.60
2019-06-07T01:29:31.177Z,6.37
2019-06-07T01:32:01.122Z,6.10
2019-06-07T01:34:30.964Z,5.97
2019-06-07T01:37:00.903Z,5.92
2019-06-07T01:39:31.848Z,6.00
2019-06-07T01:42:01.933Z,5.77
2019-06-07T01:44:31.709Z,5.75
2019-06-07T01:47:01.430Z,5.83
2019-06-07T01:49:31.218Z,6.00
2019-06-07T01:52:02.060Z,5.62
2019-06-07T01:57:03.389Z,5.67
2019-06-07T01:59:33.276Z,5.83
2019-06-07T02:02:03.112Z,5.80
2019-06-07T02:04:33.654Z,5.80
2019-06-07T02:07:03.726Z,6.03
2019-06-07T02:09:33.592Z,6.10
2019-06-07T02:12:24.774Z,5.50
2019-06-07T02:14:34.998Z,5.70
2019-06-07T02:17:05.705Z,5.78
2019-06-07T02:19:35.590Z,6.00
2019-06-07T02:22:05.358Z,5.93
2019-06-07T02:24:36.384Z,5.80
2019-06-07T02:27:06.586Z,5.72
2019-06-07T02:29:36.523Z,5.45
2019-06-07T02:32:06.491Z,5.70
2019-06-07T02:34:39.536Z,5.70
2019-06-07T02:37:07.839Z,5.60
2019-06-07T02:39:40.818Z,5.67
2019-06-07T02:42:09.352Z,5.47
2019-06-07T02:44:40.341Z,5.62
2019-06-07T02:47:10.520Z,5.42
2019-06-07T02:49:41.951Z,5.50
2019-06-07T02:52:12.167Z,5.53
2019-06-07T02:54:42.178Z,5.47
2019-06-07T02:57:12.065Z,5.73
2019-06-07T03:00:05.004Z,5.10
2019-06-07T03:02:13.289Z,5.60
2019-06-07T03:04:44.912Z,5.47
2019-06-07T03:07:14.660Z,5.30
2019-06-07T03:09:44.870Z,5.60
2019-06-07T03:12:14.646Z,5.35
2019-06-07T03:14:44.451Z,5.30
2019-06-07T03:17:35.257Z,5.62
2019-06-07T03:20:03.462Z,5.13
2019-06-07T03:22:38.957Z,5.60
2019-06-07T03:25:05.569Z,5.73
2019-06-07T03:27:43.549Z,5.37
2019-06-07T03:30:36.045Z,5.27
2019-06-07T03:32:46.819Z,5.55
2019-06-07T03:35:11.238Z,5.50
2019-06-07T03:37:42.996Z,5.57
2019-06-07T03:40:12.535Z,5.63
2019-06-07T03:42:42.315Z,5.33
2019-06-07T03:45:12.184Z,5.30
2019-06-07T03:47:43.218Z,5.53
2019-06-07T03:50:13.750Z,5.37
2019-06-07T03:52:43.609Z,5.50
2019-06-07T03:55:13.539Z,5.23
2019-06-07T04:00:15.046Z,5.37
2019-06-07T04:02:45.039Z,5.07
2019-06-07T04:05:14.750Z,5.30
2019-06-07T04:07:44.759Z,5.03
2019-06-07T04:10:14.670Z,5.40
2019-06-07T04:12:45.439Z,5.33
2019-06-07T04:15:15.248Z,5.27
2019-06-07T04:18:00.853Z,5.12
2019-06-07T04:20:16.666Z,5.58
2019-06-07T04:22:46.510Z,5.47
2019-06-07T04:25:16.289Z,5.40
2019-06-07T04:27:46.022Z,5.47
2019-06-07T04:30:20.598Z,5.37
2019-06-07T04:32:50.409Z,5.42
2019-06-07T04:35:20.258Z,5.27
2019-06-07T04:37:50.067Z,5.20
2019-06-07T04:40:19.922Z,5.55
2019-06-07T04:42:49.626Z,5.30
2019-06-07T04:45:33.867Z,5.33
2019-06-07T04:47:50.975Z,5.10
2019-06-07T04:50:20.850Z,5.10
2019-06-07T04:52:50.830Z,5.30
2019-06-07T04:55:20.663Z,5.70
2019-06-07T04:57:50.808Z,5.23
2019-06-07T05:03:00.512Z,5.28
2019-06-07T05:05:31.802Z,4.97
2019-06-07T05:08:07.545Z,5.23
2019-06-07T05:10:35.120Z,5.33
2019-06-07T05:13:04.886Z,5.13
2019-06-07T05:15:37.245Z,5.45
2019-06-07T05:18:06.509Z,5.00
2019-06-07T05:20:38.562Z,4.77
2019-06-07T05:23:08.051Z,4.75
2019-06-07T05:25:39.291Z,5.30
2019-06-07T05:28:09.467Z,5.22
2019-06-07T05:33:11.007Z,5.22
2019-06-07T05:35:43.297Z,5.28
2019-06-07T05:38:12.393Z,5.00
2019-06-07T05:40:47.989Z,4.93
2019-06-07T05:43:23.374Z,5.30
2019-06-07T05:45:53.235Z,5.20
2019-06-07T05:48:23.205Z,5.15
2019-06-07T05:50:57.113Z,5.10
2019-06-07T05:53:24.603Z,5.30
2019-06-07T05:55:54.523Z,5.55
2019-06-07T05:58:24.386Z,5.28
2019-06-07T06:00:54.313Z,5.30
2019-06-07T06:03:24.159Z,5.27
2019-06-07T06:05:55.553Z,5.27
2019-06-07T06:08:26.178Z,5.75
2019-06-07T06:10:56.063Z,5.92
2019-06-07T06:13:25.843Z,6.20
2019-06-07T06:16:01.796Z,6.60
2019-06-07T06:18:27.182Z,7.70
2019-06-07T06:21:19.337Z,8.20
2019-06-07T06:23:28.731Z,7.83
2019-06-07T06:25:58.655Z,8.23
2019-06-07T06:28:28.688Z,8.28
2019-06-07T06:30:58.461Z,8.33
2019-06-07T06:33:34.528Z,8.40
2019-06-07T06:35:59.772Z,8.75
2019-06-07T06:38:29.667Z,8.20
2019-06-07T06:41:15.259Z,8.37
2019-06-07T06:43:31.468Z,8.55
2019-06-07T06:46:01.346Z,8.48
2019-06-07T06:48:31.291Z,8.30
2019-06-07T06:51:01.087Z,8.53
2019-06-07T06:53:30.796Z,8.77
2019-06-07T06:56:00.739Z,8.73
2019-06-07T06:59:18.754Z,8.73
2019-06-07T07:01:06.712Z,8.48
2019-06-07T07:03:57.505Z,7.87
2019-06-07T07:06:24.578Z,8.45
2019-06-07T07:08:36.951Z,8.17
2019-06-07T07:11:06.729Z,7.80
2019-06-07T07:13:36.660Z,7.90
2019-06-07T07:16:06.514Z,8.20
2019-06-07T07:18:36.400Z,7.83
2019-06-07T07:21:06.262Z,7.97
2019-06-07T07:23:35.965Z,7.90
2019-06-07T07:26:05.819Z,7.63
2019-06-07T07:28:35.744Z,7.53
2019-06-07T07:31:05.502Z,7.30
2019-06-07T07:36:23.192Z,7.20
2019-06-07T07:38:38.594Z,7.20
2019-06-07T07:41:15.118Z,7.53
2019-06-07T07:43:40.031Z,7.10
2019-06-07T07:46:28.556Z,8.00
2019-06-07T07:48:41.681Z,7.57
2019-06-07T07:51:11.615Z,7.40
2019-06-07T07:53:51.280Z,8.03
2019-06-07T07:56:13.139Z,7.50
2019-06-07T07:58:43.068Z,7.10
2019-06-07T08:01:14.018Z,7.50
2019-06-07T08:03:43.872Z,7.25
2019-06-07T08:06:13.645Z,7.35
2019-06-07T08:08:43.424Z,7.35
2019-06-07T08:11:13.270Z,7.15
2019-06-07T08:13:43.129Z,7.03
2019-06-07T08:16:16.651Z,7.13
2019-06-07T08:18:44.677Z,6.75
2019-06-07T08:21:24.838Z,7.07
2019-06-07T08:23:47.681Z,7.10
2019-06-07T08:26:17.397Z,6.80
2019-06-07T08:28:48.361Z,7.00
2019-06-07T08:31:18.705Z,7.15
2019-06-07T08:33:49.893Z,6.53
2019-06-07T08:36:31.490Z,6.37
2019-06-07T08:38:56.984Z,6.45
2019-06-07T08:41:23.119Z,6.53
2019-06-07T08:43:55.227Z,6.20
2019-06-07T08:46:24.408Z,6.20
2019-06-07T08:48:57.153Z,6.47
2019-06-07T08:51:25.863Z,6.35
2019-06-07T08:54:15.895Z,6.15
2019-06-07T08:56:27.765Z,6.40
2019-06-07T08:59:03.017Z,6.62
2019-06-07T09:01:29.273Z,6.70
2019-06-07T09:04:02.830Z,7.60
2019-06-07T09:09:05.239Z,7.53
2019-06-07T09:11:33.748Z,8.30
2019-06-07T09:14:08.871Z,9.03
2019-06-07T09:16:35.211Z,9.05
2019-06-07T09:19:10.667Z,10.13
2019-06-07T09:21:36.690Z,11.20
2019-06-07T09:24:11.185Z,12.15
2019-06-07T09:26:38.249Z,11.15
2019-06-07T09:29:11.466Z,12.60
2019-06-07T09:31:51.829Z,11.80
2019-06-07T09:34:14.901Z,11.05
2019-06-07T09:36:43.344Z,10.15
2019-06-07T09:39:13.230Z,9.28
2019-06-07T09:41:49.667Z,9.28
2019-06-07T09:44:24.949Z,8.33
2019-06-07T09:46:45.950Z,8.43
2019-06-07T09:49:28.518Z,8.20
2019-06-07T09:51:47.302Z,7.40
2019-06-07T09:55:02.419Z,7.30
2019-06-07T09:56:48.798Z,6.85
2019-06-07T09:59:18.675Z,6.67
2019-06-07T10:01:49.520Z,6.50
2019-06-07T10:04:30.654Z,6.42
2019-06-07T10:06:51.083Z,5.87
2019-06-07T10:11:52.811Z,6.20
2019-06-07T10:14:22.703Z,6.37
2019-06-07T10:16:52.605Z,5.70
2019-06-07T10:19:22.480Z,6.05
2019-06-07T10:21:52.330Z,5.80
2019-06-07T10:24:22.118Z,6.25
2019-06-07T10:26:51.956Z,5.75
2019-06-07T10:29:21.867Z,5.90
2019-06-07T10:31:51.655Z,5.67
2019-06-07T10:34:21.506Z,5.50
2019-06-07T10:36:51.359Z,5.65
2019-06-07T10:39:21.279Z,5.47
2019-06-07T10:41:53.944Z,6.10
2019-06-07T10:44:22.767Z,5.60
2019-06-07T10:46:52.647Z,5.45
2019-06-07T10:49:22.579Z,5.45
2019-06-07T10:51:52.519Z,5.65
2019-06-07T10:54:29.443Z,6.00
2019-06-07T10:56:53.943Z,5.92
2019-06-07T10:59:23.797Z,5.75
2019-06-07T11:01:53.752Z,5.47
2019-06-07T11:04:23.599Z,5.08
2019-06-07T11:06:53.524Z,5.50
2019-06-07T11:09:23.364Z,5.58
2019-06-07T11:11:53.229Z,6.00
2019-06-07T11:14:23.067Z,5.12
2019-06-07T11:16:52.909Z,5.65
2019-06-07T11:19:22.863Z,5.58
2019-06-07T11:21:52.635Z,5.42
2019-06-07T11:24:24.785Z,5.28
2019-06-07T11:26:54.214Z,5.53
2019-06-07T11:29:24.064Z,5.37
2019-06-07T11:31:53.990Z,4.95
2019-06-07T11:34:23.873Z,5.28
2019-06-07T11:36:53.769Z,5.22
2019-06-07T11:39:23.545Z,5.40
2019-06-07T11:41:53.444Z,5.17
2019-06-07T11:44:23.439Z,5.25
2019-06-07T11:46:53.320Z,5.42
2019-06-07T11:49:23.121Z,5.10
2019-06-07T11:51:53.081Z,5.20
2019-06-07T11:54:23.013Z,5.22
2019-06-07T11:56:52.844Z,5.00
2019-06-07T11:59:22.788Z,5.22
2019-06-07T12:01:52.760Z,5.10
2019-06-07T12:04:34.395Z,5.12
2019-06-07T12:06:55.275Z,5.30
2019-06-07T12:09:27.978Z,4.95
2019-06-07T12:11:56.846Z,5.12
2019-06-07T12:14:26.731Z,4.92
2019-06-07T12:16:56.647Z,4.78
2019-06-07T12:19:26.389Z,5.12
2019-06-07T12:21:56.191Z,4.60
2019-06-07T12:24:27.100Z,4.40
2019-06-07T12:26:57.127Z,4.97
2019-06-07T12:29:27.032Z,4.87
2019-06-07T12:31:57.812Z,4.62
2019-06-07T12:34:28.566Z,4.83
2019-06-07T12:36:58.601Z,4.85
2019-06-07T12:39:28.452Z,4.60
2019-06-07T12:41:58.722Z,4.45
2019-06-07T12:44:28.715Z,4.42
2019-06-07T12:46:58.577Z,4.47
2019-06-07T12:49:28.410Z,5.00
2019-06-07T12:51:59.476Z,4.40
2019-06-07T12:54:29.422Z,4.22
2019-06-07T12:56:59.421Z,4.40
2019-06-07T12:59:29.393Z,4.25
2019-06-07T13:02:02.233Z,3.98
2019-06-07T13:04:31.881Z,4.00
2019-06-07T13:07:22.411Z,3.90
2019-06-07T13:09:52.406Z,4.00
2019-06-07T13:12:22.298Z,4.30
2019-06-07T13:14:52.270Z,4.22
2019-06-07T13:17:22.305Z,3.80
2019-06-07T13:19:52.243Z,3.98
2019-06-07T13:22:22.367Z,3.90
2019-06-07T13:24:53.175Z,3.90
2019-06-07T13:27:23.014Z,4.05
2019-06-07T13:29:52.865Z,4.10
2019-06-07T13:32:23.715Z,4.20
2019-06-07T13:34:53.699Z,4.10
2019-06-07T13:37:23.555Z,4.47
2019-06-07T13:39:53.471Z,4.22
2019-06-07T13:42:24.687Z,4.78
2019-06-07T13:44:54.739Z,4.75
2019-06-07T13:47:25.381Z,5.15
2019-06-07T13:49:55.558Z,4.83
2019-06-07T13:52:25.582Z,4.55
2019-06-07T13:55:01.987Z,4.58
2019-06-07T13:57:30.046Z,4.53
2019-06-07T13:59:59.859Z,4.65
2019-06-07T14:02:29.893Z,4.42
2019-06-07T14:04:59.957Z,4.70
2019-06-07T14:07:30.165Z,5.00
2019-06-07T14:10:00.181Z,4.40
2019-06-07T14:12:30.023Z,4.45
2019-06-07T14:14:59.875Z,5.17
2019-06-07T14:17:30.923Z,4.95
2019-06-07T14:20:01.233Z,4.87
2019-06-07T14:22:32.091Z,4.78
2019-06-07T14:25:02.851Z,5.28
2019-06-07T14:27:32.834Z,4.90
2019-06-07T14:30:02.736Z,4.50
2019-06-07T14:32:32.816Z,4.67
2019-06-07T14:35:03.100Z,5.00
2019-06-07T14:37:33.084Z,4.47
2019-06-07T14:40:03.081Z,4.37
2019-06-07T14:42:33.433Z,4.60
2019-06-07T14:45:06.015Z,4.53
2019-06-07T14:47:35.144Z,4.55
2019-06-07T14:50:05.507Z,5.00
2019-06-07T14:52:35.411Z,4.58
2019-06-07T14:55:05.468Z,4.20
2019-06-07T14:57:35.555Z,4.20
2019-06-07T15:00:11.424Z,4.72
2019-06-07T15:02:39.928Z,4.28
2019-06-07T15:05:10.717Z,4.30
2019-06-07T15:07:40.924Z,4.25
2019-06-07T15:10:11.055Z,4.05
2019-06-07T15:12:40.882Z,4.47
2019-06-07T15:15:12.034Z,4.60
2019-06-07T15:17:42.278Z,4.62
2019-06-07T15:20:12.133Z,4.55
2019-06-07T15:22:42.285Z,4.70
2019-06-07T15:25:12.067Z,4.40
2019-06-07T15:27:41.941Z,4.65
2019-06-07T15:30:12.029Z,4.60
2019-06-07T15:32:42.006Z,4.42
2019-06-07T15:35:11.930Z,4.55
2019-06-07T15:37:42.235Z,4.67
2019-06-07T15:40:12.136Z,4.72
2019-06-07T15:42:51.993Z,4.58
2019-06-07T15:45:13.706Z,4.65
2019-06-07T15:47:43.542Z,4.33
2019-06-07T15:50:13.505Z,4.40
2019-06-07T15:52:43.492Z,4.40
2019-06-07T15:55:13.444Z,4.62
2019-06-07T15:57:43.462Z,4.30
2019-06-07T16:00:14.648Z,4.37
2019-06-07T16:02:44.788Z,4.60
2019-06-07T16:05:14.673Z,4.70
2019-06-07T16:07:44.543Z,4.50
2019-06-07T16:10:14.469Z,4.28
2019-06-07T16:12:59.523Z,4.70
2019-06-07T16:15:18.112Z,4.78
2019-06-07T16:17:48.203Z,4.60
2019-06-07T16:20:18.089Z,4.80
2019-06-07T16:22:47.941Z,4.95
2019-06-07T16:25:17.892Z,4.60
2019-06-07T16:27:47.917Z,4.80
2019-06-07T16:30:17.886Z,4.40
2019-06-07T16:32:47.671Z,4.75
2019-06-07T16:35:17.532Z,5.00
2019-06-07T16:37:50.289Z,5.47
2019-06-07T16:40:20.702Z,5.25
2019-06-07T16:42:50.618Z,5.37
2019-06-07T16:45:20.508Z,4.80
2019-06-07T16:47:50.362Z,5.00
2019-06-07T16:50:20.282Z,5.05
2019-06-07T16:52:50.689Z,5.15
2019-06-07T16:55:20.511Z,4.78
2019-06-07T16:57:50.530Z,4.90
2019-06-07T17:00:20.767Z,4.65
2019-06-07T17:02:50.819Z,4.80
2019-06-07T17:05:20.714Z,4.87
2019-06-07T17:07:50.743Z,4.75
2019-06-07T17:10:21.550Z,4.65
2019-06-07T17:12:51.609Z,4.95
2019-06-07T17:15:21.579Z,4.53
2019-06-07T17:17:52.569Z,4.65
2019-06-07T17:20:22.434Z,4.67
2019-06-07T17:22:52.370Z,4.80
2019-06-07T17:25:22.229Z,4.72
2019-06-07T17:27:52.194Z,4.40
2019-06-07T17:30:22.147Z,4.90
2019-06-07T17:32:59.013Z,4.97
2019-06-07T17:35:23.685Z,4.62
2019-06-07T17:37:53.606Z,4.42
2019-06-07T17:40:23.642Z,4.67
2019-06-07T17:42:53.507Z,4.60
2019-06-07T17:45:23.390Z,5.42
2019-06-07T17:47:53.162Z,5.58
2019-06-07T17:50:23.078Z,5.22
2019-06-07T17:52:53.031Z,5.30
2019-06-07T17:55:23.121Z,5.58
2019-06-07T17:57:53.467Z,5.50
2019-06-07T18:00:33.364Z,5.28
2019-06-07T18:02:56.214Z,5.25
2019-06-07T18:05:27.334Z,5.58
2019-06-07T18:07:57.115Z,5.53
2019-06-07T18:10:35.728Z,5.78
2019-06-07T18:13:05.772Z,6.10
2019-06-07T18:15:40.847Z,6.25
2019-06-07T18:18:10.735Z,5.87
2019-06-07T18:20:40.598Z,6.12
2019-06-07T18:23:11.188Z,6.78
2019-06-07T18:25:46.726Z,7.30
2019-06-07T18:28:16.905Z,6.87
2019-06-07T18:30:46.942Z,7.53
2019-06-07T18:33:16.885Z,8.03
2019-06-07T18:35:47.074Z,8.55
2019-06-07T18:38:17.042Z,8.80
2019-06-07T18:40:47.207Z,8.35
2019-06-07T18:43:17.114Z,8.50
2019-06-07T18:45:49.235Z,8.90
2019-06-07T18:48:19.293Z,9.40
2019-06-07T18:50:50.559Z,9.73
2019-06-07T18:53:20.555Z,9.13
2019-06-07T18:55:52.022Z,8.95
2019-06-07T18:58:22.275Z,9.28
2019-06-07T19:00:53.705Z,8.98
2019-06-07T19:03:23.671Z,8.50
2019-06-07T19:05:54.295Z,8.70
2019-06-07T19:08:24.244Z,8.80
2019-06-07T19:10:54.808Z,8.60
2019-06-07T19:13:24.784Z,8.33
2019-06-07T19:15:55.449Z,8.45
2019-06-07T19:18:25.455Z,8.23
2019-06-07T19:20:56.421Z,8.20
2019-06-07T19:23:27.441Z,8.15
2019-06-07T19:25:58.534Z,8.55
2019-06-07T19:28:28.534Z,8.83
2019-06-07T19:30:59.191Z,8.95
2019-06-07T19:33:30.325Z,8.83
2019-06-07T19:36:00.210Z,8.73
2019-06-07T19:38:30.165Z,8.30
2019-06-07T19:41:16.726Z,8.43
2019-06-07T19:43:31.771Z,8.48
2019-06-07T19:46:02.472Z,8.08
2019-06-07T19:48:33.622Z,8.23
2019-06-07T19:51:03.557Z,8.58
2019-06-07T19:53:33.465Z,8.35
2019-06-07T19:56:03.495Z,8.08
2019-06-07T19:58:33.513Z,8.10
2019-06-07T20:01:04.717Z,7.53
2019-06-07T20:03:34.873Z,8.30
2019-06-07T20:06:04.770Z,8.43
2019-06-07T20:08:35.633Z,7.95
2019-06-07T20:11:05.431Z,7.62
2019-06-07T20:13:35.309Z,7.83
2019-06-07T20:16:05.235Z,7.65
2019-06-07T20:18:35.057Z,7.97
2019-06-07T20:21:05.076Z,7.75
2019-06-07T20:23:35.138Z,7.92
2019-06-07T20:26:04.966Z,7.53
2019-06-07T20:28:34.804Z,7.42
2019-06-07T20:31:06.037Z,8.20
2019-06-07T20:33:36.089Z,7.90
2019-06-07T20:36:06.054Z,7.87
2019-06-07T20:38:35.967Z,8.13
2019-06-07T20:41:05.834Z,7.80
2019-06-07T20:43:35.685Z,7.50
2019-06-07T20:46:06.683Z,7.72
2019-06-07T20:48:37.358Z,7.87
2019-06-07T20:51:08.524Z,7.85
2019-06-07T20:53:39.908Z,7.53
2019-06-07T20:56:09.885Z,7.72
2019-06-07T20:58:39.851Z,7.53
2019-06-07T21:01:09.794Z,7.97
2019-06-07T21:03:39.698Z,7.55
2019-06-07T21:06:09.981Z,7.35
2019-06-07T21:08:39.983Z,7.40
2019-06-07T21:11:10.019Z,7.80
2019-06-07T21:13:39.969Z,7.20
2019-06-07T21:16:10.428Z,7.92
2019-06-07T21:18:40.645Z,7.70
2019-06-07T21:21:10.682Z,7.67
2019-06-07T21:23:40.884Z,7.78
2019-06-07T21:26:11.144Z,7.87
2019-06-07T21:28:41.387Z,8.08
2019-06-07T21:31:12.454Z,7.58
2019-06-07T21:33:42.511Z,7.80
2019-06-07T21:36:12.413Z,7.42
2019-06-07T21:38:42.381Z,8.20
2019-06-07T21:41:12.661Z,8.03
2019-06-07T21:43:42.569Z,7.70
2019-06-07T21:46:20.009Z,7.50
2019-06-07T21:48:44.159Z,7.97
2019-06-07T21:51:14.061Z,8.00
2019-06-07T21:53:43.923Z,7.90
2019-06-07T21:56:13.853Z,7.53
2019-06-07T21:58:43.813Z,7.47
2019-06-07T22:01:22.714Z,7.60
2019-06-07T22:03:52.619Z,7.87
2019-06-07T22:06:22.437Z,7.70
2019-06-07T22:08:52.342Z,7.67
2019-06-07T22:11:22.182Z,7.85
2019-06-07T22:13:52.505Z,7.90
2019-06-07T22:16:28.932Z,7.97
2019-06-07T22:18:53.890Z,7.80
2019-06-07T22:21:23.742Z,7.92
2019-06-07T22:23:53.774Z,8.48
2019-06-07T22:26:23.693Z,7.35
2019-06-07T22:28:53.654Z,7.97
2019-06-07T22:31:23.502Z,8.10
2019-06-07T22:33:53.391Z,7.60
2019-06-07T22:36:23.190Z,7.90
2019-06-07T22:38:53.009Z,8.23
2019-06-07T22:41:23.835Z,7.78
2019-06-07T22:43:53.876Z,8.13
2019-06-07T22:46:36.299Z,8.13
2019-06-07T22:48:55.146Z,7.90
2019-06-07T22:51:25.066Z,7.95
2019-06-07T22:53:54.938Z,8.05
2019-06-07T22:56:32.946Z,7.80
2019-06-07T22:59:02.786Z,8.50
2019-06-07T23:01:32.749Z,8.15
2019-06-07T23:04:02.528Z,8.00
2019-06-07T23:06:32.418Z,8.90
2019-06-07T23:09:02.403Z,8.38
2019-06-07T23:11:33.346Z,8.10
2019-06-07T23:14:03.262Z,8.20
2019-06-07T23:16:33.127Z,7.72
2019-06-07T23:19:02.923Z,7.87
2019-06-07T23:21:32.714Z,7.83
2019-06-07T23:24:02.497Z,8.45
2019-06-07T23:26:32.380Z,8.13
2019-06-07T23:29:02.401Z,8.58
2019-06-07T23:31:32.346Z,8.23
2019-06-07T23:34:02.307Z,8.20
2019-06-07T23:36:32.341Z,8.53
2019-06-07T23:39:02.279Z,8.70
2019-06-07T23:41:32.217Z,7.60
2019-06-07T23:44:02.175Z,8.68
2019-06-07T23:46:32.993Z,8.50
2019-06-07T23:49:02.928Z,8.30
2019-06-07T23:51:33.018Z,8.18
2019-06-07T23:54:03.315Z,8.90
2019-06-07T23:56:33.416Z,8.35
2019-06-07T23:59:03.320Z,8.60
